Time;durP1;ratioP1;P1;durP2;ratioP2;P2;SDS_P1;SDS_P2;PMS_P1;PMS_P2;Temp;Humidity;BMP_temperature;BMP_pressure;BME280_temperature;BME280_humidity;BME280_pressure;Samples;Min_cycle;Max_cycle;Signal;HPM_P1;HPM_P2
2021/05/19 15:01:18;;;;;;;;;;;;;;;23.91;56.16;100289.44;5015689;27;103938;-79
2021/05/19 15:03:45;;;;;;;;;;;;;;;23.90;55.98;100289.81;5042310;27;204564;-84
2021/05/19 15:08:14;;;;;;;;;;;;;;;23.89;56.03;100293.75;5050290;27;164594;-78
2021/05/19 15:10:42;;;;;;;;;;;;;;;24.72;70.32;100298.59;5042198;27;104074;-77
2021/05/19 15:13:09;;;;;;;;;;;;;;;24.73;55.20;100298.19;5044296;27;104106;-73
2021/05/19 15:15:36;;;;;;;;;;;;;;;24.73;76.88;100295.41;5041296;27;102757;-81
2021/05/19 15:20:50;;;;;;;;;;;;;;;25.11;53.40;100291.56;5040607;27;102375;-66
2021/05/19 15:23:24;;;;;;;;;;;;;;;23.85;54.74;100296.47;5012897;27;102533;-65
2021/05/19 15:25:51;;;;;;;;;;;;;;;23.58;56.15;100306.69;5011576;28;103855;-68
2021/05/19 15:28:17;;;;;;;;;;;;;;;23.49;56.60;100308.91;5018521;27;102427;-70
2021/05/19 15:30:43;;;;;;;;;;;;;;;23.39;56.87;100307.53;5019717;27;102626;-66
2021/05/19 15:33:09;;;;;;;35.45;3.97;;;;;;;23.58;56.29;100305.88;5020026;27;102756;-61
2021/05/19 15:35:36;;;;;;;21.45;3.17;;;;;;;23.56;56.13;100306.28;5024489;27;103686;-61
2021/05/19 15:38:05;;;;;;;24.58;3.47;;;;;;;23.45;56.17;100310.81;5018384;28;102385;-62
2021/05/19 15:40:31;;;;;;;14.43;2.20;;;;;;;23.40;56.32;100311.91;5013376;27;102486;-62
2021/05/19 15:43:18;;;;;;;14.85;2.90;;;;;;;23.36;55.66;100311.03;5021914;28;102765;-63
2021/05/19 15:45:57;;;;;;;16.90;3.58;;;;;;;23.30;54.64;100312.53;5022957;27;104005;-63
2021/05/19 15:48:23;;;;;;;15.80;3.00;;;;;;;23.21;53.74;100312.75;5022108;28;102326;-63
2021/05/19 15:50:50;;;;;;;15.15;3.60;;;;;;;23.16;53.72;100315.03;5027496;27;102613;-63
2021/05/19 15:53:17;;;;;;;20.27;3.67;;;;;;;23.12;54.09;100320.50;5019322;27;102124;-62
2021/05/19 15:55:46;;;;;;;13.52;3.40;;;;;;;23.12;53.64;100316.94;5024112;27;104014;-62
2021/05/19 15:58:13;;;;;;;14.05;4.63;;;;;;;23.10;53.62;100322.84;5029936;27;102541;-63
2021/05/19 16:00:39;;;;;;;25.98;11.98;;;;;;;23.03;53.51;100322.69;5023793;27;102917;-62
2021/05/19 16:03:06;;;;;;;24.90;10.43;;;;;;;23.00;53.45;100320.66;5019693;27;102757;-62
2021/05/19 16:05:33;;;;;;;16.90;9.88;;;;;;;22.97;53.56;100313.88;5028389;27;103380;-62
2021/05/19 16:08:01;;;;;;;18.77;8.77;;;;;;;22.96;53.98;100328.09;5032999;27;102191;-62
2021/05/19 16:10:28;;;;;;;18.33;8.30;;;;;;;22.96;54.08;100319.78;5026590;27;102800;-62
2021/05/19 16:12:55;;;;;;;19.95;7.80;;;;;;;22.91;54.27;100325.59;5025133;27;102249;-63
2021/05/19 16:15:22;;;;;;;16.40;6.53;;;;;;;22.83;54.53;100323.81;5016514;27;104035;-63
2021/05/19 16:17:48;;;;;;;18.10;6.95;;;;;;;22.83;54.75;100330.19;5028350;27;102071;-63
2021/05/19 16:20:15;;;;;;;16.75;6.00;;;;;;;22.82;54.86;100328.56;5018076;28;102570;-62
2021/05/19 16:22:43;;;;;;;12.93;5.85;;;;;;;22.75;54.93;100326.44;5025245;27;102731;-63
2021/05/19 16:25:11;;;;;;;;;;;;;;;22.75;54.91;100329.22;5016729;28;103751;-64
2021/05/19 16:27:38;;;;;;;13.23;6.25;;;;;;;22.73;55.02;100331.56;5030215;27;102359;-63
2021/05/19 16:36:17;;;;;;;21.80;5.88;;;;;;;22.62;56.39;100324.19;4999165;28;103982;-62
2021/05/19 16:38:43;;;;;;;17.00;5.72;;;;;;;22.61;56.53;100331.69;5014899;28;102350;-61
2021/05/19 16:41:10;;;;;;;15.60;6.00;;;;;;;22.60;56.77;100332.03;5006187;28;102222;-62
2021/05/19 16:43:37;;;;;;;13.43;6.90;;;;;;;22.60;56.51;100338.38;5024516;28;102141;-62
2021/05/19 16:46:04;;;;;;;18.15;6.20;;;;;;;22.57;56.69;100332.75;5002493;28;104002;-62
2021/05/19 16:48:30;;;;;;;17.30;6.40;;;;;;;22.54;56.73;100334.31;5010506;28;102654;-62
2021/05/19 16:50:57;;;;;;;21.07;6.73;;;;;;;22.47;56.87;100336.91;5001955;28;102416;-69
2021/05/19 16:53:23;;;;;;;18.70;6.05;;;;;;;22.41;57.18;100346.66;5001769;28;102694;-74
2021/05/19 16:56:07;;;;;;;13.45;6.70;;;;;;;22.42;57.12;100342.72;5002131;28;104063;-70
2021/05/19 16:58:34;;;;;;;14.43;6.30;;;;;;;22.40;57.22;100345.88;5000259;28;102639;-66
2021/05/19 17:01:01;;;;;;;22.90;6.28;;;;;;;22.37;57.17;100356.88;5014801;28;102569;-66
2021/05/19 17:06:13;;;;;;;14.52;5.88;;;;;;;22.32;57.55;100349.63;5008038;28;102509;-66
2021/05/19 17:08:41;;;;;;;14.63;6.13;;;;;;;22.33;57.52;100350.44;5003998;28;102069;-66
2021/05/19 17:11:08;;;;;;;11.77;5.95;;;;;;;22.30;57.68;100347.22;5009222;28;102450;-66
2021/05/19 17:13:35;;;;;;;10.90;6.05;;;;;;;22.29;57.33;100340.06;5001176;28;102298;-66
2021/05/19 17:16:03;;;;;;;16.15;5.85;;;;;;;22.28;57.80;100344.00;5008685;28;103807;-66
2021/05/19 17:18:30;;;;;;;10.73;5.72;;;;;;;22.27;57.85;100342.38;5010263;28;102332;-66
2021/05/19 17:20:56;;;;;;;17.05;5.85;;;;;;;22.26;57.74;100346.31;5006625;28;102381;-66
2021/05/19 17:23:23;;;;;;;12.73;5.65;;;;;;;22.25;57.81;100344.72;5012744;28;103266;-66
2021/05/19 17:25:50;;;;;;;13.75;5.97;;;;;;;22.22;57.83;100334.34;4999575;28;103906;-66
2021/05/19 17:28:16;;;;;;;12.55;5.43;;;;;;;22.22;57.92;100339.09;5016069;28;102640;-66
2021/05/19 17:30:43;;;;;;;13.88;5.97;;;;;;;22.20;57.80;100347.75;4997812;28;102060;-65
2021/05/19 17:33:10;;;;;;;16.50;6.45;;;;;;;22.19;58.08;100348.94;5019095;28;102282;-66
2021/05/19 17:35:37;;;;;;;15.55;6.32;;;;;;;22.19;58.04;100357.25;4998744;28;104026;-66
2021/05/19 17:38:04;;;;;;;14.85;5.70;;;;;;;22.19;57.96;100356.44;5021628;28;101985;-66
2021/05/19 17:40:30;;;;;;;15.02;5.93;;;;;;;22.15;57.96;100352.78;4998844;28;102463;-66
2021/05/19 17:42:57;;;;;;;16.77;5.68;;;;;;;22.16;58.17;100354.38;5008560;28;102198;-66
2021/05/19 17:45:23;;;;;;;11.60;5.45;;;;;;;22.15;58.21;100359.13;4998768;28;103049;-66
2021/05/19 17:47:50;;;;;;;13.80;5.55;;;;;;;22.13;58.05;100363.38;5025277;28;102190;-67
2021/05/19 17:50:18;;;;;;;12.65;6.22;;;;;;;22.13;58.33;100380.81;4999703;28;102574;-66
2021/05/19 17:52:44;;;;;;;14.23;5.78;;;;;;;22.14;58.12;100381.59;5009211;28;102323;-66
2021/05/19 17:55:11;;;;;;;10.23;5.47;;;;;;;22.11;58.19;100383.16;5007134;28;103901;-66
2021/05/19 17:57:37;;;;;;;13.95;5.65;;;;;;;22.09;58.28;100382.69;5012566;28;102305;-66
2021/05/19 18:00:05;;;;;;;13.18;5.15;;;;;;;22.11;58.24;100390.63;5001811;28;102780;-66
2021/05/19 18:02:32;;;;;;;9.07;5.07;;;;;;;22.07;58.21;100399.69;5019931;28;102463;-67
2021/05/19 18:04:58;;;;;;;9.07;4.93;;;;;;;22.08;58.24;100401.28;4999118;28;104433;-66
2021/05/19 18:07:26;;;;;;;9.30;5.55;;;;;;;22.08;58.32;100406.03;5019650;28;102424;-65
2021/05/19 18:09:56;;;;;;;10.77;5.75;;;;;;;22.08;58.29;100411.56;4997999;28;102466;-66
2021/05/19 18:12:23;;;;;;;14.07;5.65;;;;;;;22.10;58.13;100414.78;5024741;28;102601;-66
2021/05/19 18:14:49;;;;;;;13.98;5.40;;;;;;;22.09;58.17;100415.94;5007613;28;103933;-66
2021/05/19 18:17:16;;;;;;;9.38;5.10;;;;;;;22.06;58.39;100419.44;4992060;28;102222;-66
2021/05/19 18:19:45;;;;;;;11.10;5.97;;;;;;;22.03;58.43;100434.81;4995735;28;102452;-66
2021/05/19 18:22:12;;;;;;;9.63;5.05;;;;;;;22.02;58.38;100424.06;5008479;27;102689;-65
2021/05/19 18:24:39;;;;;;;9.30;5.03;;;;;;;22.02;58.32;100424.88;5006132;28;103384;-66
2021/05/19 18:27:09;;;;;;;10.63;5.13;;;;;;;22.01;58.64;100428.00;5002907;27;102299;-66
2021/05/19 18:32:40;;;;;;;8.80;4.80;;;;;;;21.99;58.58;100433.09;5005974;28;102583;-66
2021/05/19 18:37:35;;;;;;;8.93;5.20;;;;;;;21.98;58.57;100443.38;5006491;28;102490;-65
2021/05/19 18:40:05;;;;;;;6.63;4.55;;;;;;;21.97;58.53;100440.97;4995233;28;102847;-66
2021/05/19 18:42:31;;;;;;;7.57;5.05;;;;;;;21.96;58.44;100442.09;5004858;28;102677;-66
2021/05/19 18:44:59;;;;;;;12.53;5.13;;;;;;;21.95;58.58;100440.50;4996074;28;104204;-66
2021/05/19 18:47:26;;;;;;;7.60;4.70;;;;;;;21.94;58.55;100444.44;4997069;28;103541;-67
2021/05/19 18:49:53;;;;;;;11.27;4.78;;;;;;;21.94;58.64;100444.44;5003452;28;102451;-66
2021/05/19 18:52:40;;;;;;;10.98;4.85;;;;;;;21.93;58.67;100445.63;4998256;28;102888;-68
2021/05/19 18:55:08;;;;;;;16.45;6.40;;;;;;;21.91;58.63;100456.22;5002482;28;102841;-67
2021/05/19 18:57:34;;;;;;;43.07;9.77;;;;;;;21.89;58.70;100453.84;5001934;27;102568;-67
2021/05/19 19:00:01;;;;;;;25.27;8.85;;;;;;;21.88;58.84;100459.72;5001373;28;102405;-68
2021/05/19 19:02:28;;;;;;;30.83;9.50;;;;;;;22.19;65.80;100462.56;4993777;28;102632;-72
2021/05/19 19:04:54;;;;;;;31.23;8.77;;;;;;;22.13;59.50;100458.41;5000621;28;104469;-72
2021/05/19 19:07:21;;;;;;;23.83;8.93;;;;;;;22.05;59.88;100462.16;4998248;28;103921;-72
2021/05/19 19:09:48;;;;;;;29.08;8.63;;;;;;;22.05;60.57;100462.16;5000305;28;102095;-74
2021/05/19 19:12:18;;;;;;;27.75;8.80;;;;;;;22.09;60.20;100463.06;5002926;28;102625;-70
2021/05/19 19:14:45;;;;;;;24.02;9.07;;;;;;;22.14;60.03;100471.13;4995301;28;103980;-70
2021/05/19 19:17:11;;;;;;;29.05;8.60;;;;;;;-142.68;60.03;76574.53;5004832;28;102575;-71
2021/05/19 19:19:39;;;;;;;22.27;9.13;;;;;;;-142.68;60.03;76574.53;5007186;28;103400;-67
2021/05/19 19:22:05;;;;;;;19.08;8.10;;;;;;;-142.68;60.03;76574.53;5002830;28;102770;-61
2021/05/19 19:24:32;;;;;;;29.35;8.77;;;;;;;-142.68;60.03;76574.53;5007306;28;103591;-62
2021/05/19 20:18:53;;;;;;;22.37;7.60;;;;;;;;;;5078143;27;89582;-70
2021/05/19 20:21:21;;;;;;;18.73;7.32;;;;;;;;;;5028732;27;89609;-71
2021/05/19 20:23:51;;;;;;;14.55;6.80;;;;;;;;;;5031700;27;90943;-70
2021/05/19 20:26:17;;;;;;;16.05;7.00;;;;;;;;;;5024938;27;91085;-70
2021/05/19 20:28:43;;;;;;;16.27;6.90;;;;;;;;;;5025684;27;91148;-69
2021/05/19 20:31:09;;;;;;;18.48;7.00;;;;;;;;;;5031159;27;89744;-69
2021/05/19 20:33:35;;;;;;;13.80;6.30;;;;;;;;;;5025952;27;89785;-76
2021/05/19 20:36:03;;;;;;;18.70;6.90;;;;;;;;;;5031195;27;90214;-82
2021/05/19 20:38:29;;;;;;;20.15;7.15;;;;;;;;;;5024494;27;90959;-78
2021/05/19 20:40:55;;;;;;;15.20;6.45;;;;;;;;;;5021581;27;90838;-81
2021/05/19 20:43:22;;;;;;;13.40;6.93;;;;;;;;;;5013200;27;91509;-76
2021/05/19 20:45:49;;;;;;;12.18;7.00;;;;;;;;;;5016487;27;94441;-84
2021/05/19 20:48:15;;;;;;;14.68;6.22;;;;;;;;;;5026145;27;92877;-84
2021/05/19 20:50:41;;;;;;;18.67;6.78;;;;;;;;;;5025558;27;96956;-78
2021/05/19 20:53:08;;;;;;;12.95;6.28;;;;;;;;;;4869236;27;92103;-79
2021/05/19 20:55:46;;;;;;;18.60;6.72;;;;;;;;;;5028282;27;90993;-79
2021/05/19 21:06:36;;;;;;;15.45;6.30;;;;;;;;;;5009546;27;89742;-67
